Grafton, Ohio
Current Conditions -  °F | °C
As of 8:53 AM on Sunday 23 Nov 2014 (Local Time) from KLPR Reporting Station
Overcast Overcast  
Wind Chill: 40°   Ceiling: 5000
Heat Index: 45°   Visibility: 10mi
Dew Point: 40°   Wind: 10mph
Humidity: 82%   Direction: 190°S
Pressure: 30"   Gusts: NA
Location:  41.27°N, 82.05°W
Report Text: KLPR 231353Z AUTO 19009KT 10SM BKN050 OVC060 07/04 A3000 RMK AO2 SLP163 T00720044 TSNO
Loading
Personal Weather Stations






























Interactive Weather Map New forecast layout! Learn more

10-Day Weather Forecast

Advertisements
Track Severe Weather on mobile